createdAt,value
2022-08-27T05:22:27.839Z,99.90
2022-08-27T05:25:13.822Z,99.90
2022-08-27T05:27:59.700Z,99.90
2022-08-27T05:30:49.287Z,99.90
2022-08-27T05:33:42.683Z,99.90
2022-08-27T05:36:32.039Z,99.90
2022-08-27T05:39:18.039Z,99.90
2022-08-27T05:42:03.952Z,99.90
2022-08-27T05:44:49.869Z,99.90
2022-08-27T05:47:37.522Z,99.90
2022-08-27T05:50:30.474Z,99.90
2022-08-27T05:53:16.198Z,99.90
2022-08-27T05:56:02.228Z,99.90
2022-08-27T05:59:08.672Z,99.90
2022-08-27T06:01:55.983Z,99.90
2022-08-27T06:04:41.806Z,99.90
2022-08-27T06:07:27.874Z,99.90
2022-08-27T06:10:13.889Z,99.90
2022-08-27T06:12:59.850Z,99.90
2022-08-27T06:15:46.000Z,99.90
2022-08-27T06:18:32.790Z,99.70
2022-08-27T06:21:24.282Z,99.90
2022-08-27T06:24:13.050Z,99.90
2022-08-27T06:26:59.593Z,99.90
2022-08-27T06:29:46.103Z,99.90
2022-08-27T06:32:32.077Z,99.50
2022-08-27T06:35:19.003Z,99.10
2022-08-27T06:38:04.980Z,98.80
2022-08-27T06:40:51.617Z,97.90
2022-08-27T06:43:39.158Z,97.30
2022-08-27T06:46:27.947Z,96.70
2022-08-27T06:49:14.180Z,96.30
2022-08-27T06:52:00.155Z,96.00
2022-08-27T06:54:46.355Z,95.50
2022-08-27T06:57:32.265Z,95.70
2022-08-27T07:00:18.117Z,94.70
2022-08-27T07:03:05.645Z,94.10
2022-08-27T07:05:51.703Z,93.80
2022-08-27T07:08:38.553Z,93.70
2022-08-27T07:11:24.950Z,94.60
2022-08-27T07:14:10.996Z,94.10
2022-08-27T07:16:56.975Z,93.90
2022-08-27T07:19:42.987Z,93.30
2022-08-27T07:22:29.986Z,93.10
2022-08-27T07:25:20.968Z,93.00
2022-08-27T07:28:06.948Z,92.10
2022-08-27T07:30:53.615Z,91.50
2022-08-27T07:33:42.135Z,91.80
2022-08-27T07:36:34.365Z,91.10
2022-08-27T07:39:20.299Z,90.70
2022-08-27T07:42:24.735Z,90.10
2022-08-27T07:45:10.979Z,90.80
2022-08-27T07:47:56.669Z,90.30
2022-08-27T07:50:43.760Z,91.00
2022-08-27T07:53:29.964Z,91.40
2022-08-27T07:56:16.342Z,91.20
2022-08-27T07:59:02.429Z,89.10
2022-08-27T08:01:49.189Z,87.90
2022-08-27T08:04:35.914Z,87.50
2022-08-27T08:07:21.973Z,88.70
2022-08-27T08:10:10.207Z,89.20
2022-08-27T08:12:56.095Z,88.60
2022-08-27T08:15:45.138Z,86.90
2022-08-27T08:21:11.676Z,85.30
2022-08-27T08:23:57.578Z,85.80
2022-08-27T08:26:44.384Z,86.90
2022-08-27T08:29:30.347Z,86.50
2022-08-27T08:32:17.382Z,85.30
2022-08-27T08:35:04.789Z,82.00
2022-08-27T08:37:50.788Z,81.50
2022-08-27T08:40:41.336Z,81.90
2022-08-27T08:43:37.012Z,79.90
2022-08-27T08:46:33.294Z,78.90
2022-08-27T08:49:34.788Z,78.50
2022-08-27T08:52:40.699Z,78.50
2022-08-27T08:55:34.353Z,75.40
2022-08-27T12:47:50.867Z,91.70
2022-08-27T12:50:38.469Z,92.60
2022-08-27T12:53:43.617Z,91.90
2022-08-27T12:56:46.367Z,92.70
2022-08-27T13:00:01.928Z,93.00
2022-08-27T13:03:16.026Z,92.10
2022-08-27T13:06:01.879Z,92.10
2022-08-27T17:33:05.311Z,99.90
2022-08-27T17:35:51.513Z,99.90
2022-08-27T17:38:38.894Z,99.90
2022-08-27T17:41:36.744Z,99.90
2022-08-27T17:44:32.973Z,99.90
2022-08-27T17:47:20.801Z,99.90
2022-08-27T17:50:06.815Z,99.90
2022-08-27T17:52:52.565Z,99.90
2022-08-27T17:55:38.483Z,99.90
2022-08-27T17:58:25.364Z,99.90
2022-08-27T18:01:11.383Z,99.90
2022-08-27T18:03:58.449Z,99.90
2022-08-27T18:06:44.692Z,99.90
2022-08-27T18:09:30.513Z,99.90
2022-08-27T18:12:19.179Z,99.90
2022-08-27T18:15:24.207Z,99.90
2022-08-27T18:18:11.778Z,99.90
2022-08-27T18:20:58.493Z,99.90
2022-08-27T18:23:44.665Z,99.90
2022-08-27T18:26:31.627Z,99.90
2022-08-27T18:29:17.894Z,99.90
2022-08-27T18:32:05.133Z,99.90
2022-08-27T18:34:51.820Z,99.90
2022-08-27T18:37:37.759Z,99.90
2022-08-27T18:40:28.537Z,99.90
2022-08-27T18:43:15.819Z,99.90
2022-08-27T18:46:04.004Z,99.90
2022-08-27T18:48:50.164Z,99.90
2022-08-27T18:51:37.361Z,99.90
2022-08-27T18:54:24.933Z,99.90
2022-08-27T18:57:12.524Z,99.90
2022-08-27T18:59:59.140Z,99.90
2022-08-27T19:02:50.043Z,99.90
2022-08-27T19:05:37.898Z,99.90
2022-08-27T19:08:24.770Z,99.90
2022-08-27T19:11:11.101Z,99.90
2022-08-27T19:13:57.525Z,99.90
2022-08-27T19:16:50.688Z,99.90
2022-08-27T19:19:36.589Z,99.90
2022-08-27T19:22:22.731Z,99.90
2022-08-27T19:25:08.618Z,99.90
2022-08-27T19:27:55.120Z,99.90
2022-08-27T19:30:41.070Z,99.90
2022-08-27T19:33:26.787Z,99.90
2022-08-27T19:36:15.999Z,99.90
2022-08-27T19:39:02.346Z,99.90
2022-08-27T19:41:48.820Z,99.90
2022-08-27T19:44:34.671Z,99.90
2022-08-27T19:47:25.762Z,99.90
2022-08-27T19:50:19.138Z,99.90
2022-08-27T19:53:05.450Z,99.90
2022-08-27T19:55:52.204Z,99.90
2022-08-27T19:58:37.799Z,99.90
2022-08-27T20:01:23.502Z,99.90
2022-08-27T20:04:09.170Z,99.90
2022-08-27T20:06:55.083Z,99.90
2022-08-27T20:09:42.470Z,99.90
2022-08-27T20:12:28.230Z,99.90
2022-08-27T20:15:14.252Z,99.90
2022-08-27T20:18:01.547Z,99.90
2022-08-27T20:20:47.386Z,99.90
2022-08-27T20:23:33.418Z,99.90
2022-08-27T20:26:20.180Z,99.90
2022-08-27T20:29:11.381Z,99.90
2022-08-27T20:32:01.858Z,99.90
2022-08-27T20:34:47.633Z,99.90
2022-08-27T20:37:33.668Z,99.90
2022-08-27T20:40:31.449Z,99.90
2022-08-27T20:43:18.838Z,99.90
2022-08-27T20:46:05.315Z,99.90
2022-08-27T20:48:51.713Z,99.90
2022-08-27T20:52:02.098Z,99.90
2022-08-27T20:54:43.453Z,99.90
2022-08-27T20:57:29.641Z,99.90
2022-08-27T21:00:21.337Z,99.90
2022-08-27T21:03:12.754Z,99.90
2022-08-27T21:05:58.420Z,99.90
2022-08-27T21:08:44.368Z,99.90
2022-08-27T21:11:30.235Z,99.90
2022-08-27T21:14:16.062Z,99.90
2022-08-27T21:17:02.268Z,99.90
2022-08-27T21:19:48.073Z,99.90
2022-08-27T21:22:34.452Z,99.90
2022-08-27T21:25:20.194Z,99.90
2022-08-27T21:28:07.516Z,99.90
2022-08-27T21:30:53.707Z,99.90
2022-08-27T21:33:39.801Z,99.90
2022-08-27T21:36:25.731Z,99.90
2022-08-27T21:39:11.786Z,99.90
2022-08-27T21:41:57.801Z,99.90
2022-08-27T21:44:43.922Z,99.90
2022-08-27T21:47:30.158Z,99.90
2022-08-27T21:50:16.099Z,99.90
2022-08-27T21:53:02.028Z,99.90
2022-08-27T21:55:51.401Z,99.90
2022-08-27T21:58:37.739Z,99.90
2022-08-27T22:01:23.370Z,99.90
2022-08-27T22:04:09.066Z,99.90
2022-08-27T22:06:54.958Z,99.90
2022-08-27T22:09:40.869Z,99.90
2022-08-27T22:12:26.926Z,99.90
2022-08-27T22:15:12.886Z,99.90
2022-08-27T22:17:59.221Z,99.90
2022-08-27T22:20:45.287Z,99.90
2022-08-27T22:23:31.463Z,99.90
2022-08-27T22:26:17.630Z,99.90
2022-08-27T22:29:04.970Z,99.90
2022-08-27T22:31:51.093Z,99.90
2022-08-27T22:34:36.839Z,99.90
2022-08-27T22:37:22.886Z,99.90
2022-08-27T22:40:19.182Z,99.90
2022-08-27T22:43:06.651Z,99.90
2022-08-27T22:45:52.478Z,99.90
2022-08-27T22:48:39.101Z,99.90
2022-08-27T22:51:24.884Z,99.90
2022-08-27T22:54:10.720Z,99.90
2022-08-27T22:56:56.271Z,99.90
2022-08-27T22:59:42.271Z,99.90
2022-08-27T23:02:28.468Z,99.90
2022-08-27T23:05:16.074Z,99.90
2022-08-27T23:08:03.865Z,99.90
2022-08-27T23:10:51.807Z,99.90
2022-08-27T23:13:38.809Z,99.90
2022-08-27T23:16:24.753Z,99.90
2022-08-27T23:19:11.416Z,99.90
2022-08-27T23:21:58.429Z,99.90
2022-08-27T23:25:03.013Z,99.90
2022-08-27T23:27:48.675Z,99.90
2022-08-27T23:30:35.436Z,99.90
2022-08-27T23:33:21.367Z,99.90
2022-08-27T23:36:07.336Z,99.90
2022-08-27T23:38:53.023Z,99.90
2022-08-27T23:41:38.921Z,99.90
2022-08-27T23:44:28.497Z,99.90
2022-08-27T23:47:15.151Z,99.90
2022-08-27T23:50:01.435Z,99.90
2022-08-27T23:52:47.115Z,99.90
2022-08-27T23:55:33.840Z,99.90
2022-08-27T23:58:19.415Z,99.90
